sensor_id;sensor_type;location;lat;lon;timestamp;P1;durP1;ratioP1;P2;durP2;ratioP2
10896;SDS011;5501;51.176;6.470;2022-12-05T00:02:11;19.77;;;11.10;;
10896;SDS011;5501;51.176;6.470;2022-12-05T00:07:12;23.42;;;10.73;;
10896;SDS011;5501;51.176;6.470;2022-12-05T00:12:13;17.75;;;10.32;;
10896;SDS011;5501;51.176;6.470;2022-12-05T00:17:15;24.50;;;11.35;;
10896;SDS011;5501;51.176;6.470;2022-12-05T00:22:16;24.90;;;10.75;;
10896;SDS011;5501;51.176;6.470;2022-12-05T00:27:17;20.45;;;10.95;;
10896;SDS011;5501;51.176;6.470;2022-12-05T00:32:19;17.50;;;10.48;;
10896;SDS011;5501;51.176;6.470;2022-12-05T00:37:20;23.75;;;11.85;;
10896;SDS011;5501;51.176;6.470;2022-12-05T00:42:22;24.33;;;12.10;;
10896;SDS011;5501;51.176;6.470;2022-12-05T00:47:23;21.42;;;10.27;;
10896;SDS011;5501;51.176;6.470;2022-12-05T00:52:25;20.88;;;10.82;;
10896;SDS011;5501;51.176;6.470;2022-12-05T00:57:26;20.90;;;10.27;;
10896;SDS011;5501;51.176;6.470;2022-12-05T01:02:28;23.05;;;12.50;;
10896;SDS011;5501;51.176;6.470;2022-12-05T01:07:30;27.00;;;11.50;;
10896;SDS011;5501;51.176;6.470;2022-12-05T01:12:31;20.98;;;10.75;;
10896;SDS011;5501;51.176;6.470;2022-12-05T01:17:33;21.58;;;10.40;;
10896;SDS011;5501;51.176;6.470;2022-12-05T01:22:36;19.63;;;10.00;;
10896;SDS011;5501;51.176;6.470;2022-12-05T01:27:37;26.40;;;12.20;;
10896;SDS011;5501;51.176;6.470;2022-12-05T01:32:38;21.05;;;10.10;;
10896;SDS011;5501;51.176;6.470;2022-12-05T01:37:39;28.40;;;10.88;;
10896;SDS011;5501;51.176;6.470;2022-12-05T01:42:41;23.75;;;11.05;;
10896;SDS011;5501;51.176;6.470;2022-12-05T01:47:42;25.35;;;10.63;;
10896;SDS011;5501;51.176;6.470;2022-12-05T01:52:44;18.95;;;10.23;;
10896;SDS011;5501;51.176;6.470;2022-12-05T01:57:45;23.65;;;11.80;;
10896;SDS011;5501;51.176;6.470;2022-12-05T02:02:49;20.02;;;11.80;;
10896;SDS011;5501;51.176;6.470;2022-12-05T02:07:52;25.20;;;11.30;;
10896;SDS011;5501;51.176;6.470;2022-12-05T02:12:54;22.25;;;11.27;;
10896;SDS011;5501;51.176;6.470;2022-12-05T02:28:31;26.73;;;11.05;;
10896;SDS011;5501;51.176;6.470;2022-12-05T02:33:39;21.98;;;11.77;;
10896;SDS011;5501;51.176;6.470;2022-12-05T02:44:13;30.95;;;11.50;;
10896;SDS011;5501;51.176;6.470;2022-12-05T02:49:18;22.25;;;11.88;;
10896;SDS011;5501;51.176;6.470;2022-12-05T02:54:22;23.70;;;11.73;;
10896;SDS011;5501;51.176;6.470;2022-12-05T02:59:24;24.60;;;12.07;;
10896;SDS011;5501;51.176;6.470;2022-12-05T03:04:25;29.40;;;11.82;;
10896;SDS011;5501;51.176;6.470;2022-12-05T03:09:35;21.70;;;11.63;;
10896;SDS011;5501;51.176;6.470;2022-12-05T03:24:48;22.20;;;10.73;;
10896;SDS011;5501;51.176;6.470;2022-12-05T03:29:57;23.73;;;12.55;;
10896;SDS011;5501;51.176;6.470;2022-12-05T03:35:04;22.83;;;11.82;;
10896;SDS011;5501;51.176;6.470;2022-12-05T03:40:11;24.60;;;11.45;;
10896;SDS011;5501;51.176;6.470;2022-12-05T03:45:15;24.07;;;12.37;;
10896;SDS011;5501;51.176;6.470;2022-12-05T03:50:21;23.35;;;11.52;;
10896;SDS011;5501;51.176;6.470;2022-12-05T03:55:24;18.65;;;10.40;;
10896;SDS011;5501;51.176;6.470;2022-12-05T04:00:28;24.42;;;11.80;;
10896;SDS011;5501;51.176;6.470;2022-12-05T04:05:43;22.25;;;12.93;;
10896;SDS011;5501;51.176;6.470;2022-12-05T04:10:47;24.23;;;11.35;;
10896;SDS011;5501;51.176;6.470;2022-12-05T04:15:54;20.98;;;10.85;;
10896;SDS011;5501;51.176;6.470;2022-12-05T04:21:15;21.90;;;12.02;;
10896;SDS011;5501;51.176;6.470;2022-12-05T04:26:39;23.67;;;11.70;;
10896;SDS011;5501;51.176;6.470;2022-12-05T04:31:43;29.95;;;12.10;;
10896;SDS011;5501;51.176;6.470;2022-12-05T04:37:03;21.38;;;11.18;;
10896;SDS011;5501;51.176;6.470;2022-12-05T04:42:08;19.85;;;11.90;;
10896;SDS011;5501;51.176;6.470;2022-12-05T04:47:10;19.52;;;10.32;;
10896;SDS011;5501;51.176;6.470;2022-12-05T04:52:14;24.63;;;12.00;;
10896;SDS011;5501;51.176;6.470;2022-12-05T05:02:25;25.85;;;12.18;;
10896;SDS011;5501;51.176;6.470;2022-12-05T05:07:28;24.33;;;12.23;;
10896;SDS011;5501;51.176;6.470;2022-12-05T05:12:29;21.20;;;11.43;;
10896;SDS011;5501;51.176;6.470;2022-12-05T05:17:30;21.60;;;12.43;;
10896;SDS011;5501;51.176;6.470;2022-12-05T05:22:32;15.48;;;9.63;;
10896;SDS011;5501;51.176;6.470;2022-12-05T05:27:33;24.70;;;11.98;;
10896;SDS011;5501;51.176;6.470;2022-12-05T05:32:35;18.90;;;10.48;;
10896;SDS011;5501;51.176;6.470;2022-12-05T05:37:36;21.15;;;11.98;;
10896;SDS011;5501;51.176;6.470;2022-12-05T05:42:41;23.48;;;11.05;;
10896;SDS011;5501;51.176;6.470;2022-12-05T05:47:43;16.67;;;10.70;;
10896;SDS011;5501;51.176;6.470;2022-12-05T05:52:45;18.58;;;11.27;;
10896;SDS011;5501;51.176;6.470;2022-12-05T05:57:46;24.60;;;11.65;;
10896;SDS011;5501;51.176;6.470;2022-12-05T06:02:47;19.80;;;10.77;;
10896;SDS011;5501;51.176;6.470;2022-12-05T06:07:51;18.80;;;10.48;;
10896;SDS011;5501;51.176;6.470;2022-12-05T06:12:52;19.17;;;9.88;;
10896;SDS011;5501;51.176;6.470;2022-12-05T06:17:55;25.00;;;11.43;;
10896;SDS011;5501;51.176;6.470;2022-12-05T06:22:56;24.15;;;11.82;;
10896;SDS011;5501;51.176;6.470;2022-12-05T06:27:57;24.98;;;11.55;;
10896;SDS011;5501;51.176;6.470;2022-12-05T06:32:59;17.13;;;9.90;;
10896;SDS011;5501;51.176;6.470;2022-12-05T06:38:00;18.50;;;10.55;;
10896;SDS011;5501;51.176;6.470;2022-12-05T06:43:02;21.83;;;10.85;;
10896;SDS011;5501;51.176;6.470;2022-12-05T06:48:03;23.13;;;11.43;;
10896;SDS011;5501;51.176;6.470;2022-12-05T06:53:04;22.08;;;11.75;;
10896;SDS011;5501;51.176;6.470;2022-12-05T06:58:06;18.20;;;10.57;;
10896;SDS011;5501;51.176;6.470;2022-12-05T07:03:09;22.25;;;11.00;;
10896;SDS011;5501;51.176;6.470;2022-12-05T07:08:10;19.48;;;11.20;;
10896;SDS011;5501;51.176;6.470;2022-12-05T07:13:12;21.77;;;11.18;;
10896;SDS011;5501;51.176;6.470;2022-12-05T07:18:16;27.40;;;11.10;;
10896;SDS011;5501;51.176;6.470;2022-12-05T07:23:18;20.90;;;11.25;;
10896;SDS011;5501;51.176;6.470;2022-12-05T07:28:19;24.88;;;12.20;;
10896;SDS011;5501;51.176;6.470;2022-12-05T07:33:20;26.40;;;11.77;;
10896;SDS011;5501;51.176;6.470;2022-12-05T07:38:22;25.15;;;12.23;;
10896;SDS011;5501;51.176;6.470;2022-12-05T07:43:23;20.90;;;12.07;;
10896;SDS011;5501;51.176;6.470;2022-12-05T07:48:25;23.13;;;12.38;;
10896;SDS011;5501;51.176;6.470;2022-12-05T07:53:26;23.35;;;11.00;;
10896;SDS011;5501;51.176;6.470;2022-12-05T07:58:28;22.52;;;11.57;;
10896;SDS011;5501;51.176;6.470;2022-12-05T08:03:29;22.65;;;11.73;;
10896;SDS011;5501;51.176;6.470;2022-12-05T08:08:31;21.08;;;12.43;;
10896;SDS011;5501;51.176;6.470;2022-12-05T08:13:33;24.60;;;12.77;;
10896;SDS011;5501;51.176;6.470;2022-12-05T08:18:35;20.00;;;10.93;;
10896;SDS011;5501;51.176;6.470;2022-12-05T08:23:37;19.80;;;11.20;;
10896;SDS011;5501;51.176;6.470;2022-12-05T08:28:38;18.67;;;11.02;;
10896;SDS011;5501;51.176;6.470;2022-12-05T08:33:41;19.05;;;10.63;;
10896;SDS011;5501;51.176;6.470;2022-12-05T08:38:43;25.20;;;11.88;;
10896;SDS011;5501;51.176;6.470;2022-12-05T08:43:44;24.25;;;12.93;;
10896;SDS011;5501;51.176;6.470;2022-12-05T08:48:46;21.83;;;12.98;;
10896;SDS011;5501;51.176;6.470;2022-12-05T08:53:47;23.90;;;11.98;;
10896;SDS011;5501;51.176;6.470;2022-12-05T08:58:48;25.33;;;10.88;;
10896;SDS011;5501;51.176;6.470;2022-12-05T09:03:50;18.08;;;11.75;;
10896;SDS011;5501;51.176;6.470;2022-12-05T09:08:55;21.77;;;11.07;;
10896;SDS011;5501;51.176;6.470;2022-12-05T09:13:57;20.50;;;11.65;;
10896;SDS011;5501;51.176;6.470;2022-12-05T09:18:59;20.67;;;11.27;;
10896;SDS011;5501;51.176;6.470;2022-12-05T09:24:01;22.63;;;11.77;;
10896;SDS011;5501;51.176;6.470;2022-12-05T09:29:02;18.50;;;11.43;;
10896;SDS011;5501;51.176;6.470;2022-12-05T09:34:04;20.67;;;11.85;;
10896;SDS011;5501;51.176;6.470;2022-12-05T09:39:06;17.25;;;10.07;;
10896;SDS011;5501;51.176;6.470;2022-12-05T09:44:08;18.05;;;10.52;;
10896;SDS011;5501;51.176;6.470;2022-12-05T09:49:13;17.60;;;10.20;;
10896;SDS011;5501;51.176;6.470;2022-12-05T09:54:14;21.25;;;10.57;;
10896;SDS011;5501;51.176;6.470;2022-12-05T09:59:16;23.77;;;10.75;;
10896;SDS011;5501;51.176;6.470;2022-12-05T10:14:41;17.13;;;10.70;;
10896;SDS011;5501;51.176;6.470;2022-12-05T10:19:44;22.08;;;11.60;;
10896;SDS011;5501;51.176;6.470;2022-12-05T10:24:51;17.77;;;10.50;;
10896;SDS011;5501;51.176;6.470;2022-12-05T10:30:02;20.23;;;11.63;;
10896;SDS011;5501;51.176;6.470;2022-12-05T10:40:25;18.52;;;10.10;;
10896;SDS011;5501;51.176;6.470;2022-12-05T10:45:27;23.50;;;10.52;;
10896;SDS011;5501;51.176;6.470;2022-12-05T10:50:30;16.48;;;10.63;;
10896;SDS011;5501;51.176;6.470;2022-12-05T10:55:36;18.38;;;10.65;;
10896;SDS011;5501;51.176;6.470;2022-12-05T11:00:40;16.58;;;10.27;;
10896;SDS011;5501;51.176;6.470;2022-12-05T11:05:51;16.33;;;10.40;;
10896;SDS011;5501;51.176;6.470;2022-12-05T11:11:03;16.65;;;9.82;;
10896;SDS011;5501;51.176;6.470;2022-12-05T11:16:08;15.57;;;9.38;;
10896;SDS011;5501;51.176;6.470;2022-12-05T11:21:22;13.43;;;8.80;;
10896;SDS011;5501;51.176;6.470;2022-12-05T11:26:34;13.68;;;8.30;;
10896;SDS011;5501;51.176;6.470;2022-12-05T11:31:35;12.30;;;7.47;;
10896;SDS011;5501;51.176;6.470;2022-12-05T11:36:42;12.63;;;7.90;;
10896;SDS011;5501;51.176;6.470;2022-12-05T11:47:02;12.07;;;8.13;;
10896;SDS011;5501;51.176;6.470;2022-12-05T12:08:15;10.95;;;8.05;;
10896;SDS011;5501;51.176;6.470;2022-12-05T12:14:02;11.52;;;7.50;;
10896;SDS011;5501;51.176;6.470;2022-12-05T12:18:50;11.27;;;7.93;;
10896;SDS011;5501;51.176;6.470;2022-12-05T12:24:26;13.05;;;7.65;;
10896;SDS011;5501;51.176;6.470;2022-12-05T12:45:14;14.95;;;8.98;;
10896;SDS011;5501;51.176;6.470;2022-12-05T12:50:22;10.07;;;7.13;;
10896;SDS011;5501;51.176;6.470;2022-12-05T12:55:42;11.30;;;7.68;;
10896;SDS011;5501;51.176;6.470;2022-12-05T13:05:47;10.45;;;7.10;;
10896;SDS011;5501;51.176;6.470;2022-12-05T13:10:50;8.13;;;6.68;;
10896;SDS011;5501;51.176;6.470;2022-12-05T13:15:53;9.02;;;6.78;;
10896;SDS011;5501;51.176;6.470;2022-12-05T13:20:56;10.07;;;6.60;;
10896;SDS011;5501;51.176;6.470;2022-12-05T13:25:58;11.27;;;6.95;;
10896;SDS011;5501;51.176;6.470;2022-12-05T13:31:00;9.82;;;6.95;;
10896;SDS011;5501;51.176;6.470;2022-12-05T13:36:06;10.18;;;6.90;;
10896;SDS011;5501;51.176;6.470;2022-12-05T13:41:43;11.80;;;7.65;;
10896;SDS011;5501;51.176;6.470;2022-12-05T13:47:04;11.57;;;8.07;;
10896;SDS011;5501;51.176;6.470;2022-12-05T13:52:14;9.13;;;7.25;;
10896;SDS011;5501;51.176;6.470;2022-12-05T14:02:59;12.70;;;7.70;;
10896;SDS011;5501;51.176;6.470;2022-12-05T14:34:13;10.75;;;7.15;;
10896;SDS011;5501;51.176;6.470;2022-12-05T14:39:20;11.02;;;7.82;;
10896;SDS011;5501;51.176;6.470;2022-12-05T14:44:22;11.48;;;7.45;;
10896;SDS011;5501;51.176;6.470;2022-12-05T14:49:35;12.35;;;7.57;;
10896;SDS011;5501;51.176;6.470;2022-12-05T14:54:40;12.50;;;8.45;;
10896;SDS011;5501;51.176;6.470;2022-12-05T15:09:57;14.32;;;7.80;;
10896;SDS011;5501;51.176;6.470;2022-12-05T15:15:04;10.02;;;7.63;;
10896;SDS011;5501;51.176;6.470;2022-12-05T15:20:10;9.82;;;7.40;;
10896;SDS011;5501;51.176;6.470;2022-12-05T15:25:50;11.07;;;7.77;;
10896;SDS011;5501;51.176;6.470;2022-12-05T15:30:42;10.75;;;6.97;;
10896;SDS011;5501;51.176;6.470;2022-12-05T15:35:45;8.95;;;6.95;;
10896;SDS011;5501;51.176;6.470;2022-12-05T15:40:48;12.52;;;8.00;;
10896;SDS011;5501;51.176;6.470;2022-12-05T15:45:49;10.43;;;7.68;;
10896;SDS011;5501;51.176;6.470;2022-12-05T15:50:50;7.57;;;6.80;;
10896;SDS011;5501;51.176;6.470;2022-12-05T15:55:54;11.48;;;7.43;;
10896;SDS011;5501;51.176;6.470;2022-12-05T16:00:57;10.25;;;7.72;;
10896;SDS011;5501;51.176;6.470;2022-12-05T16:06:00;8.52;;;6.35;;
10896;SDS011;5501;51.176;6.470;2022-12-05T16:11:08;9.75;;;6.85;;
10896;SDS011;5501;51.176;6.470;2022-12-05T16:16:13;10.65;;;7.05;;
10896;SDS011;5501;51.176;6.470;2022-12-05T16:26:35;12.70;;;7.30;;
10896;SDS011;5501;51.176;6.470;2022-12-05T16:31:37;11.23;;;7.43;;
10896;SDS011;5501;51.176;6.470;2022-12-05T16:36:46;8.80;;;6.75;;
10896;SDS011;5501;51.176;6.470;2022-12-05T16:41:48;13.50;;;7.47;;
10896;SDS011;5501;51.176;6.470;2022-12-05T16:46:50;8.75;;;6.30;;
10896;SDS011;5501;51.176;6.470;2022-12-05T16:51:54;9.55;;;7.10;;
10896;SDS011;5501;51.176;6.470;2022-12-05T16:56:55;9.73;;;6.00;;
10896;SDS011;5501;51.176;6.470;2022-12-05T17:01:58;14.20;;;7.32;;
10896;SDS011;5501;51.176;6.470;2022-12-05T17:07:02;7.90;;;5.55;;
10896;SDS011;5501;51.176;6.470;2022-12-05T17:12:06;8.43;;;5.75;;
10896;SDS011;5501;51.176;6.470;2022-12-05T17:17:11;6.47;;;5.53;;
10896;SDS011;5501;51.176;6.470;2022-12-05T17:22:13;6.32;;;5.40;;
10896;SDS011;5501;51.176;6.470;2022-12-05T17:27:15;6.70;;;5.20;;
10896;SDS011;5501;51.176;6.470;2022-12-05T17:32:17;6.70;;;5.13;;
10896;SDS011;5501;51.176;6.470;2022-12-05T17:37:18;5.93;;;5.32;;
10896;SDS011;5501;51.176;6.470;2022-12-05T17:42:19;17.10;;;6.90;;
10896;SDS011;5501;51.176;6.470;2022-12-05T17:47:21;9.88;;;5.80;;
10896;SDS011;5501;51.176;6.470;2022-12-05T17:52:22;7.07;;;5.47;;
10896;SDS011;5501;51.176;6.470;2022-12-05T17:57:24;7.63;;;5.43;;
10896;SDS011;5501;51.176;6.470;2022-12-05T18:02:25;7.63;;;5.28;;
10896;SDS011;5501;51.176;6.470;2022-12-05T18:07:26;7.57;;;4.68;;
10896;SDS011;5501;51.176;6.470;2022-12-05T18:12:28;6.93;;;4.65;;
10896;SDS011;5501;51.176;6.470;2022-12-05T18:17:29;6.03;;;4.60;;
10896;SDS011;5501;51.176;6.470;2022-12-05T18:22:31;8.65;;;6.15;;
10896;SDS011;5501;51.176;6.470;2022-12-05T18:27:33;11.63;;;7.35;;
10896;SDS011;5501;51.176;6.470;2022-12-05T18:32:34;9.85;;;6.20;;
10896;SDS011;5501;51.176;6.470;2022-12-05T18:37:36;8.90;;;5.22;;
10896;SDS011;5501;51.176;6.470;2022-12-05T18:42:38;7.78;;;5.57;;
10896;SDS011;5501;51.176;6.470;2022-12-05T18:47:39;8.55;;;5.47;;
10896;SDS011;5501;51.176;6.470;2022-12-05T18:52:40;10.18;;;7.00;;
10896;SDS011;5501;51.176;6.470;2022-12-05T18:57:42;7.60;;;5.07;;
10896;SDS011;5501;51.176;6.470;2022-12-05T19:02:46;9.48;;;5.68;;
10896;SDS011;5501;51.176;6.470;2022-12-05T19:07:48;7.05;;;5.13;;
10896;SDS011;5501;51.176;6.470;2022-12-05T19:12:49;9.60;;;6.03;;
10896;SDS011;5501;51.176;6.470;2022-12-05T19:17:50;9.77;;;6.10;;
10896;SDS011;5501;51.176;6.470;2022-12-05T19:22:51;8.38;;;6.45;;
10896;SDS011;5501;51.176;6.470;2022-12-05T19:28:00;8.15;;;5.75;;
10896;SDS011;5501;51.176;6.470;2022-12-05T19:33:02;9.48;;;6.32;;
10896;SDS011;5501;51.176;6.470;2022-12-05T19:38:03;9.95;;;6.80;;
10896;SDS011;5501;51.176;6.470;2022-12-05T19:43:05;12.52;;;7.40;;
10896;SDS011;5501;51.176;6.470;2022-12-05T19:48:06;11.25;;;6.97;;
10896;SDS011;5501;51.176;6.470;2022-12-05T19:53:07;13.15;;;8.02;;
10896;SDS011;5501;51.176;6.470;2022-12-05T19:58:12;11.30;;;7.40;;
10896;SDS011;5501;51.176;6.470;2022-12-05T20:03:13;13.13;;;8.48;;
10896;SDS011;5501;51.176;6.470;2022-12-05T20:08:15;11.15;;;7.20;;
10896;SDS011;5501;51.176;6.470;2022-12-05T20:13:16;9.40;;;6.90;;
10896;SDS011;5501;51.176;6.470;2022-12-05T20:18:38;11.35;;;7.60;;
10896;SDS011;5501;51.176;6.470;2022-12-05T20:23:43;12.32;;;7.78;;
10896;SDS011;5501;51.176;6.470;2022-12-05T20:28:44;10.82;;;7.20;;
10896;SDS011;5501;51.176;6.470;2022-12-05T20:33:46;10.73;;;7.20;;
10896;SDS011;5501;51.176;6.470;2022-12-05T20:38:53;12.75;;;8.30;;
10896;SDS011;5501;51.176;6.470;2022-12-05T20:43:58;10.70;;;7.40;;
10896;SDS011;5501;51.176;6.470;2022-12-05T20:48:59;11.45;;;7.95;;
10896;SDS011;5501;51.176;6.470;2022-12-05T20:54:01;11.02;;;7.85;;
10896;SDS011;5501;51.176;6.470;2022-12-05T20:59:04;12.52;;;9.60;;
10896;SDS011;5501;51.176;6.470;2022-12-05T21:04:06;9.73;;;7.18;;
10896;SDS011;5501;51.176;6.470;2022-12-05T21:09:08;12.05;;;8.57;;
10896;SDS011;5501;51.176;6.470;2022-12-05T21:14:18;13.45;;;8.45;;
10896;SDS011;5501;51.176;6.470;2022-12-05T21:19:20;9.85;;;7.53;;
10896;SDS011;5501;51.176;6.470;2022-12-05T21:24:22;11.98;;;8.00;;
10896;SDS011;5501;51.176;6.470;2022-12-05T21:29:23;14.00;;;8.88;;
10896;SDS011;5501;51.176;6.470;2022-12-05T21:34:25;14.38;;;8.98;;
10896;SDS011;5501;51.176;6.470;2022-12-05T21:39:26;12.25;;;7.90;;
10896;SDS011;5501;51.176;6.470;2022-12-05T21:44:27;12.27;;;8.38;;
10896;SDS011;5501;51.176;6.470;2022-12-05T21:49:29;11.25;;;7.43;;
10896;SDS011;5501;51.176;6.470;2022-12-05T21:54:30;12.70;;;8.93;;
10896;SDS011;5501;51.176;6.470;2022-12-05T21:59:32;12.90;;;8.63;;
10896;SDS011;5501;51.176;6.470;2022-12-05T22:04:33;14.80;;;8.95;;
10896;SDS011;5501;51.176;6.470;2022-12-05T22:09:34;12.05;;;8.07;;
10896;SDS011;5501;51.176;6.470;2022-12-05T22:14:36;20.02;;;9.90;;
10896;SDS011;5501;51.176;6.470;2022-12-05T22:19:37;14.07;;;8.93;;
10896;SDS011;5501;51.176;6.470;2022-12-05T22:24:38;15.98;;;9.60;;
10896;SDS011;5501;51.176;6.470;2022-12-05T22:29:40;15.10;;;8.48;;
10896;SDS011;5501;51.176;6.470;2022-12-05T22:34:41;14.15;;;8.70;;
10896;SDS011;5501;51.176;6.470;2022-12-05T22:39:43;14.75;;;8.45;;
10896;SDS011;5501;51.176;6.470;2022-12-05T22:44:44;15.93;;;8.60;;
10896;SDS011;5501;51.176;6.470;2022-12-05T22:49:45;15.20;;;9.35;;
10896;SDS011;5501;51.176;6.470;2022-12-05T22:54:47;12.60;;;8.30;;
10896;SDS011;5501;51.176;6.470;2022-12-05T22:59:48;15.77;;;8.57;;
10896;SDS011;5501;51.176;6.470;2022-12-05T23:04:49;15.27;;;8.88;;
10896;SDS011;5501;51.176;6.470;2022-12-05T23:09:50;16.73;;;9.02;;
10896;SDS011;5501;51.176;6.470;2022-12-05T23:14:52;15.63;;;9.70;;
10896;SDS011;5501;51.176;6.470;2022-12-05T23:19:53;20.17;;;10.68;;
10896;SDS011;5501;51.176;6.470;2022-12-05T23:24:55;19.88;;;11.52;;
10896;SDS011;5501;51.176;6.470;2022-12-05T23:29:56;18.38;;;10.00;;
10896;SDS011;5501;51.176;6.470;2022-12-05T23:34:58;19.40;;;11.52;;
10896;SDS011;5501;51.176;6.470;2022-12-05T23:39:59;20.35;;;11.85;;
10896;SDS011;5501;51.176;6.470;2022-12-05T23:45:01;26.48;;;13.05;;
10896;SDS011;5501;51.176;6.470;2022-12-05T23:50:03;21.90;;;10.80;;
10896;SDS011;5501;51.176;6.470;2022-12-05T23:55:04;20.83;;;12.20;;
